Pearl Of Scandinavia — OWFU2 — position and weather

sailwx.info

Track history (hours):
 
Tides and Currents Weather Stations Pressure Air Temp Water Temp Dewpoint Dewpoint Depression Visibility Wind Speed Wind Dir Waves Ship Positions

Pearl Of Scandinavia

Last reported at 2016-Jul-28 07:22 UTC. Time now 2016-Jul-28 12:23 UTC.
Position N 59°54' E 010°42'.

Length 176.4 m; beam 34 m; draft 6.215 m.

Type: Ship. MMSI: 219945000.

Date/timePositionNaut miles runAvg speedWind from/ knotsBaromVisibWave heightAir tempDewpointWater temp
2016-Jul-28 07:22N 59°54' E 010°42'1113.9
2016-Jul-28 06:33N 59°43' E 010°35'1514.6
2016-Jul-28 05:34N 59°28' E 010°34'1616.0
2016-Jul-28 04:34N 59°12' E 010°39'1616.2
2016-Jul-28 03:34N 58°56' E 010°42'1616.1
2016-Jul-28 02:34N 58°40' E 010°46'1616.1
2016-Jul-28 01:34N 58°25' E 010°57'1716.9
2016-Jul-28 00:34N 58°09' E 011°05'1717.3
2016-Jul-27 23:34N 57°52' E 011°15'1616.1
2016-Jul-27 22:33N 57°37' E 011°24'1616.3
2016-Jul-27 21:34N 57°21' E 011°33'1716.5
2016-Jul-27 20:33N 57°05' E 011°42'1616.2
2016-Jul-27 19:34N 56°51' E 011°53'1615.9
2016-Jul-27 18:33N 56°37' E 012°09'3516.2
2016-Jul-27 16:25N 56°06' E 012°35'1415.7
2016-Jul-27 15:34N 55°53' E 012°44'1212.0
2016-Jul-27 14:33N 55°42' E 012°36'0 0.0
2016-Jul-27 13:33N 55°42' E 012°36'0 0.0
2016-Jul-27 12:33N 55°42' E 012°36'0 0.0
2016-Jul-27 11:33N 55°42' E 012°36'0 0.0
2016-Jul-27 10:33N 55°42' E 012°36'0 0.0
2016-Jul-27 09:33N 55°42' E 012°36'0 0.0
2016-Jul-27 08:33N 55°42' E 012°36'0 0.3
2016-Jul-27 07:34N 55°42' E 012°36'1110.8
2016-Jul-27 06:33N 55°53' E 012°40'1313.5
2016-Jul-27 05:33N 56°06' E 012°34'3015.0
2016-Jul-27 03:32N 56°34' E 012°14'1717.4
2016-Jul-27 02:33N 56°50' E 012°05'1918.6
2016-Jul-27 01:32N 57°08' E 011°55'1818.2
2016-Jul-27 00:34N 57°23' E 011°36'1817.9
2016-Jul-26 23:34N 57°37' E 011°15'1817.9
2016-Jul-26 22:33N 57°54' E 011°02'1818.0
2016-Jul-26 21:33N 58°11' E 010°51'1717.3
2016-Jul-26 20:34N 58°27' E 010°40'1716.7
2016-Jul-26 19:34N 58°43' E 010°34'1615.5
2016-Jul-26 18:33N 58°59' E 010°36'1414.4
2016-Jul-26 17:33N 59°13' E 010°37'1414.4
2016-Jul-26 16:33N 59°27' E 010°33'1413.9
2016-Jul-26 15:34N 59°41' E 010°36'13 1.5
2016-Jul-26 07:22N 59°54' E 010°41'1214.3
2016-Jul-26 06:33N 59°42' E 010°36'1514.6
2016-Jul-26 05:33N 59°28' E 010°34'1616.0
2016-Jul-26 04:33N 59°12' E 010°38'1616.0
2016-Jul-26 03:33N 58°56' E 010°42'1616.0
2016-Jul-26 02:34N 58°40' E 010°46'1616.2
2016-Jul-26 01:33N 58°25' E 010°56'1616.0
2016-Jul-26 00:33N 58°10' E 011°06'1616.1
2016-Jul-25 23:33N 57°55' E 011°15'1616.1
2016-Jul-25 22:33N 57°40' E 011°27'1615.9
2016-Jul-25 21:33N 57°25' E 011°40'1615.9
2016-Jul-25 20:33N 57°11' E 011°54'1615.8
2016-Jul-25 19:33N 56°57' E 012°06'1616.0
2016-Jul-25 18:33N 56°42' E 012°14'1616.0
2016-Jul-25 17:33N 56°26' E 012°22'1616.4
2016-Jul-25 16:33N 56°10' E 012°30'1616.2
2016-Jul-25 15:34N 55°56' E 012°43'1413.9
2016-Jul-25 14:33N 55°43' E 012°37'1 0.8
2016-Jul-25 13:33N 55°42' E 012°36'0 0.0
2016-Jul-25 12:33N 55°42' E 012°36'0 0.0
2016-Jul-25 11:33N 55°42' E 012°36'0 0.0
2016-Jul-25 10:33N 55°42' E 012°36'0 0.0
2016-Jul-25 09:33N 55°42' E 012°36'0 0.0
2016-Jul-25 08:33N 55°42' E 012°36'0 0.2
2016-Jul-25 07:33N 55°42' E 012°36'1111.3
2016-Jul-25 06:33N 55°53' E 012°40'1414.2
2016-Jul-25 05:33N 56°07' E 012°32'1515.0
2016-Jul-25 04:33N 56°21' E 012°22'1616.0
2016-Jul-25 03:33N 56°36' E 012°15'1717.0
2016-Jul-25 02:33N 56°53' E 012°07'1716.7
2016-Jul-25 01:33N 57°09' E 011°58'1716.6
2016-Jul-25 00:33N 57°22' E 011°40'1616.5
2016-Jul-24 23:33N 57°37' E 011°27'1716.9
2016-Jul-24 22:33N 57°53' E 011°15'1716.9
2016-Jul-24 21:34N 58°09' E 011°06'1716.6
2016-Jul-24 20:33N 58°25' E 010°57'1616.3
2016-Jul-24 19:33N 58°40' E 010°48'1717.1
2016-Jul-24 18:33N 58°57' E 010°43'1717.2
2016-Jul-24 17:33N 59°14' E 010°37'1716.8
2016-Jul-24 16:33N 59°31' E 010°35'1514.5
2016-Jul-24 15:32N 59°46' E 010°33'9 1.1
2016-Jul-24 07:21N 59°54' E 010°41'1214.3
2016-Jul-24 06:31N 59°42' E 010°36'1414.5
2016-Jul-24 05:34N 59°28' E 010°34'1615.7
2016-Jul-24 04:33N 59°13' E 010°38'1515.5
2016-Jul-24 03:33N 58°57' E 010°42'1515.4
2016-Jul-24 02:34N 58°42' E 010°45'1616.1
2016-Jul-24 01:34N 58°27' E 010°55'1616.0
2016-Jul-24 00:34N 58°12' E 011°05'1615.7
2016-Jul-23 23:34N 57°57' E 011°14'1515.4
2016-Jul-23 22:34N 57°42' E 011°25'1615.7
2016-Jul-23 21:34N 57°28' E 011°37'1615.6
2016-Jul-23 20:33N 57°14' E 011°51'1615.6
2016-Jul-23 19:33N 57°00' E 012°03'1615.8
2016-Jul-23 18:34N 56°45' E 012°13'1615.6
2016-Jul-23 17:33N 56°30' E 012°20'1717.0
2016-Jul-23 16:33N 56°14' E 012°27'1717.3
2016-Jul-23 15:33N 55°59' E 012°42'1515.4
2016-Jul-23 14:33N 55°43' E 012°39'2 1.8
2016-Jul-23 13:31N 55°42' E 012°36'0 0.0
2016-Jul-23 12:31N 55°42' E 012°36'0 0.0
2016-Jul-23 11:31N 55°42' E 012°36'0 0.0
2016-Jul-23 10:28N 55°42' E 012°36'0 0.0
2016-Jul-23 09:31N 55°42' E 012°36'0 0.0
2016-Jul-23 08:31N 55°42' E 012°36'0 0.1
2016-Jul-23 07:33N 55°42' E 012°36'1010.1
2016-Jul-23 06:33N 55°52' E 012°41'2914.3
2016-Jul-23 04:33N 56°19' E 012°23'1616.1
2016-Jul-23 03:33N 56°34' E 012°16'1818.3
2016-Jul-23 02:33N 56°52' E 012°07'1717.3
2016-Jul-23 01:33N 57°09' E 011°58'1717.3
2016-Jul-23 00:33N 57°24' E 011°41'1817.7
2016-Jul-22 23:33N 57°40' E 011°27'1818.0
2016-Jul-22 22:33N 57°56' E 011°13'1818.1
2016-Jul-22 21:33N 58°13' E 011°03'1717.4
2016-Jul-22 20:33N 58°30' E 010°54'1717.1
2016-Jul-22 19:33N 58°46' E 010°46'1817.5
2016-Jul-22 18:33N 59°04' E 010°40'1717.3
2016-Jul-22 17:33N 59°21' E 010°35'1716.8
2016-Jul-22 16:33N 59°38' E 010°37'1414.4
2016-Jul-22 15:33N 59°52' E 010°38'2 0.3
2016-Jul-22 07:20N 59°54' E 010°41'2614.7
2016-Jul-22 05:33N 59°28' E 010°34'1615.9
2016-Jul-22 04:33N 59°12' E 010°38'1615.9
2016-Jul-22 03:33N 58°56' E 010°42'1515.5
2016-Jul-22 02:33N 58°41' E 010°46'1615.7
2016-Jul-22 01:33N 58°26' E 010°56'1615.8
2016-Jul-22 00:33N 58°11' E 011°06'1615.6
2016-Jul-21 23:33N 57°57' E 011°16'1515.3
2016-Jul-21 22:33N 57°42' E 011°24'1615.8
2016-Jul-21 21:33N 57°27' E 011°36'1615.9
2016-Jul-21 20:33N 57°14' E 011°52'1616.0
2016-Jul-21 19:33N 56°59' E 012°04'1615.7
2016-Jul-21 18:33N 56°44' E 012°13'1515.6
2016-Jul-21 17:33N 56°29' E 012°19'1717.2
2016-Jul-21 16:33N 56°13' E 012°28'1717.2
2016-Jul-21 15:33N 55°58' E 012°42'1514.9
2016-Jul-21 14:34N 55°43' E 012°38'1 1.4
2016-Jul-21 13:32N 55°42' E 012°36'0 0.0
2016-Jul-21 12:32N 55°42' E 012°36'0 0.0
2016-Jul-21 11:32N 55°42' E 012°36'0 0.0
2016-Jul-21 10:32N 55°42' E 012°36'0 0.0
2016-Jul-21 09:32N 55°42' E 012°36'0 0.0
2016-Jul-21 08:32N 55°42' E 012°36'0 0.2
2016-Jul-21 07:33N 55°42' E 012°36'1010.3
2016-Jul-21 06:33N 55°52' E 012°40'1313.1
2016-Jul-21 05:33N 56°05' E 012°35'1514.8
2016-Jul-21 04:32N 56°19' E 012°23'1616.6
2016-Jul-21 03:33N 56°34' E 012°16'1717.2
2016-Jul-21 02:33N 56°51' E 012°10'1616.5
2016-Jul-21 01:34N 57°07' E 011°59'1716.7
2016-Jul-21 00:33N 57°21' E 011°44'1716.7
2016-Jul-20 23:33N 57°36' E 011°29'1717.4
2016-Jul-20 22:33N 57°52' E 011°16'1717.4
2016-Jul-20 21:33N 58°08' E 011°06'1717.2
2016-Jul-20 20:33N 58°25' E 010°57'1716.5
2016-Jul-20 19:34N 58°41' E 010°48'1716.7
2016-Jul-20 18:33N 58°57' E 010°43'1716.6
2016-Jul-20 17:34N 59°14' E 010°38'1616.2
2016-Jul-20 16:33N 59°30' E 010°34'1614.8
2016-Jul-20 15:30N 59°45' E 010°33'9 1.1
2016-Jul-20 07:21N 59°54' E 010°41'1214.5
2016-Jul-20 06:31N 59°42' E 010°36'1414.8
2016-Jul-20 05:33N 59°28' E 010°34'1616.4
2016-Jul-20 04:33N 59°11' E 010°39'1616.1
2016-Jul-20 03:33N 58°55' E 010°42'1615.8
2016-Jul-20 02:33N 58°40' E 010°47'1616.4
2016-Jul-20 01:34N 58°24' E 010°56'1716.8
2016-Jul-20 00:33N 58°08' E 011°05'1616.4
2016-Jul-19 23:33N 57°53' E 011°16'1716.7
2016-Jul-19 22:33N 57°36' E 011°24'1716.6
2016-Jul-19 21:33N 57°21' E 011°34'1616.3
2016-Jul-19 20:33N 57°05' E 011°43'1616.0
2016-Jul-19 19:32N 56°50' E 011°55'1616.0
2016-Jul-19 18:33N 56°37' E 012°09'1916.3
2016-Jul-19 17:23N 56°19' E 012°23'1316.2
2016-Jul-19 16:33N 56°07' E 012°33'1616.1
2016-Jul-19 15:33N 55°52' E 012°45'1111.1
2016-Jul-19 14:33N 55°42' E 012°36'0 0.0
2016-Jul-19 13:32N 55°42' E 012°36'0 0.0
2016-Jul-19 12:32N 55°42' E 012°36'0 0.0
2016-Jul-19 11:32N 55°42' E 012°36'0 0.0
2016-Jul-19 10:32N 55°42' E 012°36'0 0.0
2016-Jul-19 09:32N 55°42' E 012°36'0 0.0
2016-Jul-19 08:32N 55°42' E 012°36'0 0.3
2016-Jul-19 07:33N 55°42' E 012°36'4413.4
2016-Jul-19 04:15N 56°26' E 012°19'1115.9
2016-Jul-19 03:33N 56°36' E 012°13'1615.9
2016-Jul-19 02:33N 56°51' E 012°05'1716.7
2016-Jul-19 01:33N 57°07' E 011°56'1616.4
2016-Jul-19 00:33N 57°22' E 011°42'1716.7
2016-Jul-18 23:33N 57°37' E 011°27'1716.6
2016-Jul-18 22:33N 57°52' E 011°15'1616.4
2016-Jul-18 21:33N 58°08' E 011°07'1515.5
2016-Jul-18 20:33N 58°22' E 010°58'1615.6
2016-Jul-18 19:34N 58°37' E 010°50'1615.9
2016-Jul-18 18:33N 58°53' E 010°44'1716.9
2016-Jul-18 17:33N 59°10' E 010°38'1717.0
2016-Jul-18 16:33N 59°26' E 010°33'1515.1
2016-Jul-18 15:33N 59°41' E 010°36'  
Track history (hours):
 
Tides and Currents Weather Stations Pressure Air Temp Water Temp Dewpoint Dewpoint Depression Visibility Wind Speed Wind Dir Waves Ship Positions

Pearl Of Scandinavia

Last reported at 2016-Jul-28 07:22 UTC. Time now 2016-Jul-28 12:23 UTC.
Position N 59°54' E 010°42'.

Length 176.4 m; beam 34 m; draft 6.215 m.

Type: Ship. MMSI: 219945000.

Date/timePositionNaut miles runAvg speedWind from/ knotsBaromVisibWave heightAir tempDewpointWater temp
2016-Jul-28 07:22N 59°54' E 010°42'1113.9
2016-Jul-28 06:33N 59°43' E 010°35'1514.6
2016-Jul-28 05:34N 59°28' E 010°34'1616.0
2016-Jul-28 04:34N 59°12' E 010°39'1616.2
2016-Jul-28 03:34N 58°56' E 010°42'1616.1
2016-Jul-28 02:34N 58°40' E 010°46'1616.1
2016-Jul-28 01:34N 58°25' E 010°57'1716.9
2016-Jul-28 00:34N 58°09' E 011°05'1717.3
2016-Jul-27 23:34N 57°52' E 011°15'1616.1
2016-Jul-27 22:33N 57°37' E 011°24'1616.3
2016-Jul-27 21:34N 57°21' E 011°33'1716.5
2016-Jul-27 20:33N 57°05' E 011°42'1616.2
2016-Jul-27 19:34N 56°51' E 011°53'1615.9
2016-Jul-27 18:33N 56°37' E 012°09'3516.2
2016-Jul-27 16:25N 56°06' E 012°35'1415.7
2016-Jul-27 15:34N 55°53' E 012°44'1212.0
2016-Jul-27 14:33N 55°42' E 012°36'0 0.0
2016-Jul-27 13:33N 55°42' E 012°36'0 0.0
2016-Jul-27 12:33N 55°42' E 012°36'0 0.0
2016-Jul-27 11:33N 55°42' E 012°36'0 0.0
2016-Jul-27 10:33N 55°42' E 012°36'0 0.0
2016-Jul-27 09:33N 55°42' E 012°36'0 0.0
2016-Jul-27 08:33N 55°42' E 012°36'0 0.3
2016-Jul-27 07:34N 55°42' E 012°36'1110.8
2016-Jul-27 06:33N 55°53' E 012°40'1313.5
2016-Jul-27 05:33N 56°06' E 012°34'3015.0
2016-Jul-27 03:32N 56°34' E 012°14'1717.4
2016-Jul-27 02:33N 56°50' E 012°05'1918.6
2016-Jul-27 01:32N 57°08' E 011°55'1818.2
2016-Jul-27 00:34N 57°23' E 011°36'1817.9
2016-Jul-26 23:34N 57°37' E 011°15'1817.9
2016-Jul-26 22:33N 57°54' E 011°02'1818.0
2016-Jul-26 21:33N 58°11' E 010°51'1717.3
2016-Jul-26 20:34N 58°27' E 010°40'1716.7
2016-Jul-26 19:34N 58°43' E 010°34'1615.5
2016-Jul-26 18:33N 58°59' E 010°36'1414.4
2016-Jul-26 17:33N 59°13' E 010°37'1414.4
2016-Jul-26 16:33N 59°27' E 010°33'1413.9
2016-Jul-26 15:34N 59°41' E 010°36'13 1.5
2016-Jul-26 07:22N 59°54' E 010°41'1214.3
2016-Jul-26 06:33N 59°42' E 010°36'1514.6
2016-Jul-26 05:33N 59°28' E 010°34'1616.0
2016-Jul-26 04:33N 59°12' E 010°38'1616.0
2016-Jul-26 03:33N 58°56' E 010°42'1616.0
2016-Jul-26 02:34N 58°40' E 010°46'1616.2
2016-Jul-26 01:33N 58°25' E 010°56'1616.0
2016-Jul-26 00:33N 58°10' E 011°06'1616.1
2016-Jul-25 23:33N 57°55' E 011°15'1616.1
2016-Jul-25 22:33N 57°40' E 011°27'1615.9
2016-Jul-25 21:33N 57°25' E 011°40'1615.9
2016-Jul-25 20:33N 57°11' E 011°54'1615.8
2016-Jul-25 19:33N 56°57' E 012°06'1616.0
2016-Jul-25 18:33N 56°42' E 012°14'1616.0
2016-Jul-25 17:33N 56°26' E 012°22'1616.4
2016-Jul-25 16:33N 56°10' E 012°30'1616.2
2016-Jul-25 15:34N 55°56' E 012°43'1413.9
2016-Jul-25 14:33N 55°43' E 012°37'1 0.8
2016-Jul-25 13:33N 55°42' E 012°36'0 0.0
2016-Jul-25 12:33N 55°42' E 012°36'0 0.0
2016-Jul-25 11:33N 55°42' E 012°36'0 0.0
2016-Jul-25 10:33N 55°42' E 012°36'0 0.0
2016-Jul-25 09:33N 55°42' E 012°36'0 0.0
2016-Jul-25 08:33N 55°42' E 012°36'0 0.2
2016-Jul-25 07:33N 55°42' E 012°36'1111.3
2016-Jul-25 06:33N 55°53' E 012°40'1414.2
2016-Jul-25 05:33N 56°07' E 012°32'1515.0
2016-Jul-25 04:33N 56°21' E 012°22'1616.0
2016-Jul-25 03:33N 56°36' E 012°15'1717.0
2016-Jul-25 02:33N 56°53' E 012°07'1716.7
2016-Jul-25 01:33N 57°09' E 011°58'1716.6
2016-Jul-25 00:33N 57°22' E 011°40'1616.5
2016-Jul-24 23:33N 57°37' E 011°27'1716.9
2016-Jul-24 22:33N 57°53' E 011°15'1716.9
2016-Jul-24 21:34N 58°09' E 011°06'1716.6
2016-Jul-24 20:33N 58°25' E 010°57'1616.3
2016-Jul-24 19:33N 58°40' E 010°48'1717.1
2016-Jul-24 18:33N 58°57' E 010°43'1717.2
2016-Jul-24 17:33N 59°14' E 010°37'1716.8
2016-Jul-24 16:33N 59°31' E 010°35'1514.5
2016-Jul-24 15:32N 59°46' E 010°33'9 1.1
2016-Jul-24 07:21N 59°54' E 010°41'1214.3
2016-Jul-24 06:31N 59°42' E 010°36'1414.5
2016-Jul-24 05:34N 59°28' E 010°34'1615.7
2016-Jul-24 04:33N 59°13' E 010°38'1515.5
2016-Jul-24 03:33N 58°57' E 010°42'1515.4
2016-Jul-24 02:34N 58°42' E 010°45'1616.1
2016-Jul-24 01:34N 58°27' E 010°55'1616.0
2016-Jul-24 00:34N 58°12' E 011°05'1615.7
2016-Jul-23 23:34N 57°57' E 011°14'1515.4
2016-Jul-23 22:34N 57°42' E 011°25'1615.7
2016-Jul-23 21:34N 57°28' E 011°37'1615.6
2016-Jul-23 20:33N 57°14' E 011°51'1615.6
2016-Jul-23 19:33N 57°00' E 012°03'1615.8
2016-Jul-23 18:34N 56°45' E 012°13'1615.6
2016-Jul-23 17:33N 56°30' E 012°20'1717.0
2016-Jul-23 16:33N 56°14' E 012°27'1717.3
2016-Jul-23 15:33N 55°59' E 012°42'1515.4
2016-Jul-23 14:33N 55°43' E 012°39'2 1.8
2016-Jul-23 13:31N 55°42' E 012°36'0 0.0
2016-Jul-23 12:31N 55°42' E 012°36'0 0.0
2016-Jul-23 11:31N 55°42' E 012°36'0 0.0
2016-Jul-23 10:28N 55°42' E 012°36'0 0.0
2016-Jul-23 09:31N 55°42' E 012°36'0 0.0
2016-Jul-23 08:31N 55°42' E 012°36'0 0.1
2016-Jul-23 07:33N 55°42' E 012°36'1010.1
2016-Jul-23 06:33N 55°52' E 012°41'2914.3
2016-Jul-23 04:33N 56°19' E 012°23'1616.1
2016-Jul-23 03:33N 56°34' E 012°16'1818.3
2016-Jul-23 02:33N 56°52' E 012°07'1717.3
2016-Jul-23 01:33N 57°09' E 011°58'1717.3
2016-Jul-23 00:33N 57°24' E 011°41'1817.7
2016-Jul-22 23:33N 57°40' E 011°27'1818.0
2016-Jul-22 22:33N 57°56' E 011°13'1818.1
2016-Jul-22 21:33N 58°13' E 011°03'1717.4
2016-Jul-22 20:33N 58°30' E 010°54'1717.1
2016-Jul-22 19:33N 58°46' E 010°46'1817.5
2016-Jul-22 18:33N 59°04' E 010°40'1717.3
2016-Jul-22 17:33N 59°21' E 010°35'1716.8
2016-Jul-22 16:33N 59°38' E 010°37'1414.4
2016-Jul-22 15:33N 59°52' E 010°38'2 0.3
2016-Jul-22 07:20N 59°54' E 010°41'2614.7
2016-Jul-22 05:33N 59°28' E 010°34'1615.9
2016-Jul-22 04:33N 59°12' E 010°38'1615.9
2016-Jul-22 03:33N 58°56' E 010°42'1515.5
2016-Jul-22 02:33N 58°41' E 010°46'1615.7
2016-Jul-22 01:33N 58°26' E 010°56'1615.8
2016-Jul-22 00:33N 58°11' E 011°06'1615.6
2016-Jul-21 23:33N 57°57' E 011°16'1515.3
2016-Jul-21 22:33N 57°42' E 011°24'1615.8
2016-Jul-21 21:33N 57°27' E 011°36'1615.9
2016-Jul-21 20:33N 57°14' E 011°52'1616.0
2016-Jul-21 19:33N 56°59' E 012°04'1615.7
2016-Jul-21 18:33N 56°44' E 012°13'1515.6
2016-Jul-21 17:33N 56°29' E 012°19'1717.2
2016-Jul-21 16:33N 56°13' E 012°28'1717.2
2016-Jul-21 15:33N 55°58' E 012°42'1514.9
2016-Jul-21 14:34N 55°43' E 012°38'1 1.4
2016-Jul-21 13:32N 55°42' E 012°36'0 0.0
2016-Jul-21 12:32N 55°42' E 012°36'0 0.0
2016-Jul-21 11:32N 55°42' E 012°36'0 0.0
2016-Jul-21 10:32N 55°42' E 012°36'0 0.0
2016-Jul-21 09:32N 55°42' E 012°36'0 0.0
2016-Jul-21 08:32N 55°42' E 012°36'0 0.2
2016-Jul-21 07:33N 55°42' E 012°36'1010.3
2016-Jul-21 06:33N 55°52' E 012°40'1313.1
2016-Jul-21 05:33N 56°05' E 012°35'1514.8
2016-Jul-21 04:32N 56°19' E 012°23'1616.6
2016-Jul-21 03:33N 56°34' E 012°16'1717.2
2016-Jul-21 02:33N 56°51' E 012°10'1616.5
2016-Jul-21 01:34N 57°07' E 011°59'1716.7
2016-Jul-21 00:33N 57°21' E 011°44'1716.7
2016-Jul-20 23:33N 57°36' E 011°29'1717.4
2016-Jul-20 22:33N 57°52' E 011°16'1717.4
2016-Jul-20 21:33N 58°08' E 011°06'1717.2
2016-Jul-20 20:33N 58°25' E 010°57'1716.5
2016-Jul-20 19:34N 58°41' E 010°48'1716.7
2016-Jul-20 18:33N 58°57' E 010°43'1716.6
2016-Jul-20 17:34N 59°14' E 010°38'1616.2
2016-Jul-20 16:33N 59°30' E 010°34'1614.8
2016-Jul-20 15:30N 59°45' E 010°33'9 1.1
2016-Jul-20 07:21N 59°54' E 010°41'1214.5
2016-Jul-20 06:31N 59°42' E 010°36'1414.8
2016-Jul-20 05:33N 59°28' E 010°34'1616.4
2016-Jul-20 04:33N 59°11' E 010°39'1616.1
2016-Jul-20 03:33N 58°55' E 010°42'1615.8
2016-Jul-20 02:33N 58°40' E 010°47'1616.4
2016-Jul-20 01:34N 58°24' E 010°56'1716.8
2016-Jul-20 00:33N 58°08' E 011°05'1616.4
2016-Jul-19 23:33N 57°53' E 011°16'1716.7
2016-Jul-19 22:33N 57°36' E 011°24'1716.6
2016-Jul-19 21:33N 57°21' E 011°34'1616.3
2016-Jul-19 20:33N 57°05' E 011°43'1616.0
2016-Jul-19 19:32N 56°50' E 011°55'1616.0
2016-Jul-19 18:33N 56°37' E 012°09'1916.3
2016-Jul-19 17:23N 56°19' E 012°23'1316.2
2016-Jul-19 16:33N 56°07' E 012°33'1616.1
2016-Jul-19 15:33N 55°52' E 012°45'1111.1
2016-Jul-19 14:33N 55°42' E 012°36'0 0.0
2016-Jul-19 13:32N 55°42' E 012°36'0 0.0
2016-Jul-19 12:32N 55°42' E 012°36'0 0.0
2016-Jul-19 11:32N 55°42' E 012°36'0 0.0
2016-Jul-19 10:32N 55°42' E 012°36'0 0.0
2016-Jul-19 09:32N 55°42' E 012°36'0 0.0
2016-Jul-19 08:32N 55°42' E 012°36'0 0.3
2016-Jul-19 07:33N 55°42' E 012°36'4413.4
2016-Jul-19 04:15N 56°26' E 012°19'1115.9
2016-Jul-19 03:33N 56°36' E 012°13'1615.9
2016-Jul-19 02:33N 56°51' E 012°05'1716.7
2016-Jul-19 01:33N 57°07' E 011°56'1616.4
2016-Jul-19 00:33N 57°22' E 011°42'1716.7
2016-Jul-18 23:33N 57°37' E 011°27'1716.6
2016-Jul-18 22:33N 57°52' E 011°15'1616.4
2016-Jul-18 21:33N 58°08' E 011°07'1515.5
2016-Jul-18 20:33N 58°22' E 010°58'1615.6
2016-Jul-18 19:34N 58°37' E 010°50'1615.9
2016-Jul-18 18:33N 58°53' E 010°44'1716.9
2016-Jul-18 17:33N 59°10' E 010°38'1717.0
2016-Jul-18 16:33N 59°26' E 010°33'1515.1
2016-Jul-18 15:33N 59°41' E 010°36'  

Dump ship's entire track history